sensor_id;sensor_type;location;lat;lon;timestamp;temperature;humidity
75457;SHT31;64036;48.266;14.192;2023-04-24T00:00:28;13.64;70.53
75457;SHT31;64036;48.266;14.192;2023-04-24T00:02:54;13.65;70.60
75457;SHT31;64036;48.266;14.192;2023-04-24T00:05:25;13.68;70.71
75457;SHT31;64036;48.266;14.192;2023-04-24T00:07:50;13.68;70.79
75457;SHT31;64036;48.266;14.192;2023-04-24T00:10:23;13.69;70.90
75457;SHT31;64036;48.266;14.192;2023-04-24T00:12:48;13.70;70.96
75457;SHT31;64036;48.266;14.192;2023-04-24T00:15:17;13.68;71.21
75457;SHT31;64036;48.266;14.192;2023-04-24T00:17:48;13.64;71.52
75457;SHT31;64036;48.266;14.192;2023-04-24T00:20:22;13.59;71.76
75457;SHT31;64036;48.266;14.192;2023-04-24T00:22:48;13.56;71.94
75457;SHT31;64036;48.266;14.192;2023-04-24T00:25:15;13.54;72.09
75457;SHT31;64036;48.266;14.192;2023-04-24T00:27:49;13.52;72.24
75457;SHT31;64036;48.266;14.192;2023-04-24T00:30:23;13.50;72.47
75457;SHT31;64036;48.266;14.192;2023-04-24T00:32:49;13.47;72.72
75457;SHT31;64036;48.266;14.192;2023-04-24T00:35:15;13.45;72.93
75457;SHT31;64036;48.266;14.192;2023-04-24T00:37:46;13.43;73.06
75457;SHT31;64036;48.266;14.192;2023-04-24T00:40:12;13.40;73.36
75457;SHT31;64036;48.266;14.192;2023-04-24T00:42:43;13.38;73.66
75457;SHT31;64036;48.266;14.192;2023-04-24T00:45:10;13.36;73.76
75457;SHT31;64036;48.266;14.192;2023-04-24T00:47:36;13.34;73.95
75457;SHT31;64036;48.266;14.192;2023-04-24T00:50:05;13.33;74.18
75457;SHT31;64036;48.266;14.192;2023-04-24T00:52:32;13.32;74.31
75457;SHT31;64036;48.266;14.192;2023-04-24T00:55:07;13.30;74.33
75457;SHT31;64036;48.266;14.192;2023-04-24T00:57:37;13.27;74.42
75457;SHT31;64036;48.266;14.192;2023-04-24T01:00:04;13.24;74.60
75457;SHT31;64036;48.266;14.192;2023-04-24T01:02:40;13.22;74.66
75457;SHT31;64036;48.266;14.192;2023-04-24T01:05:10;13.21;74.73
75457;SHT31;64036;48.266;14.192;2023-04-24T01:07:41;13.18;74.98
75457;SHT31;64036;48.266;14.192;2023-04-24T01:10:14;13.14;75.30
75457;SHT31;64036;48.266;14.192;2023-04-24T01:12:46;13.10;75.56
75457;SHT31;64036;48.266;14.192;2023-04-24T01:15:11;13.08;75.80
75457;SHT31;64036;48.266;14.192;2023-04-24T01:17:37;13.04;76.16
75457;SHT31;64036;48.266;14.192;2023-04-24T01:20:04;13.00;76.50
75457;SHT31;64036;48.266;14.192;2023-04-24T01:22:33;12.96;76.58
75457;SHT31;64036;48.266;14.192;2023-04-24T01:25:08;12.90;76.94
75457;SHT31;64036;48.266;14.192;2023-04-24T01:27:37;12.84;77.14
75457;SHT31;64036;48.266;14.192;2023-04-24T01:30:09;12.77;77.34
75457;SHT31;64036;48.266;14.192;2023-04-24T01:32:36;12.72;77.46
75457;SHT31;64036;48.266;14.192;2023-04-24T01:35:03;12.67;77.63
75457;SHT31;64036;48.266;14.192;2023-04-24T01:37:35;12.64;77.77
75457;SHT31;64036;48.266;14.192;2023-04-24T01:40:02;12.63;77.70
75457;SHT31;64036;48.266;14.192;2023-04-24T01:42:33;12.61;77.81
75457;SHT31;64036;48.266;14.192;2023-04-24T01:45:05;12.60;77.86
75457;SHT31;64036;48.266;14.192;2023-04-24T01:47:39;12.59;77.90
75457;SHT31;64036;48.266;14.192;2023-04-24T01:50:10;12.56;77.96
75457;SHT31;64036;48.266;14.192;2023-04-24T01:52:36;12.54;77.99
75457;SHT31;64036;48.266;14.192;2023-04-24T01:55:08;12.53;78.10
75457;SHT31;64036;48.266;14.192;2023-04-24T01:57:42;12.50;78.26
75457;SHT31;64036;48.266;14.192;2023-04-24T02:00:10;12.47;78.24
75457;SHT31;64036;48.266;14.192;2023-04-24T02:02:45;12.45;78.27
75457;SHT31;64036;48.266;14.192;2023-04-24T02:05:18;12.41;78.42
75457;SHT31;64036;48.266;14.192;2023-04-24T02:07:46;12.36;78.65
75457;SHT31;64036;48.266;14.192;2023-04-24T02:10:12;12.34;78.63
75457;SHT31;64036;48.266;14.192;2023-04-24T02:12:40;12.33;78.67
75457;SHT31;64036;48.266;14.192;2023-04-24T02:15:06;12.31;78.71
75457;SHT31;64036;48.266;14.192;2023-04-24T02:17:32;12.31;78.70
75457;SHT31;64036;48.266;14.192;2023-04-24T02:19:59;12.31;78.79
75457;SHT31;64036;48.266;14.192;2023-04-24T02:22:27;12.30;78.91
75457;SHT31;64036;48.266;14.192;2023-04-24T02:24:56;12.27;78.99
75457;SHT31;64036;48.266;14.192;2023-04-24T02:27:22;12.26;79.12
75457;SHT31;64036;48.266;14.192;2023-04-24T02:29:48;12.25;79.23
75457;SHT31;64036;48.266;14.192;2023-04-24T02:32:19;12.24;79.24
75457;SHT31;64036;48.266;14.192;2023-04-24T02:34:45;12.25;79.23
75457;SHT31;64036;48.266;14.192;2023-04-24T02:37:11;12.24;79.29
75457;SHT31;64036;48.266;14.192;2023-04-24T02:39:42;12.24;79.23
75457;SHT31;64036;48.266;14.192;2023-04-24T02:42:11;12.25;79.33
75457;SHT31;64036;48.266;14.192;2023-04-24T02:44:40;12.23;79.40
75457;SHT31;64036;48.266;14.192;2023-04-24T02:47:14;12.19;79.48
75457;SHT31;64036;48.266;14.192;2023-04-24T02:49:43;12.17;79.58
75457;SHT31;64036;48.266;14.192;2023-04-24T02:52:11;12.15;79.68
75457;SHT31;64036;48.266;14.192;2023-04-24T02:54:40;12.14;79.71
75457;SHT31;64036;48.266;14.192;2023-04-24T02:57:09;12.13;79.81
75457;SHT31;64036;48.266;14.192;2023-04-24T02:59:37;12.12;79.85
75457;SHT31;64036;48.266;14.192;2023-04-24T03:02:11;12.14;79.87
75457;SHT31;64036;48.266;14.192;2023-04-24T03:04:40;12.13;79.89
75457;SHT31;64036;48.266;14.192;2023-04-24T03:07:11;12.13;79.91
75457;SHT31;64036;48.266;14.192;2023-04-24T03:09:37;12.12;79.91
75457;SHT31;64036;48.266;14.192;2023-04-24T03:12:02;12.13;79.92
75457;SHT31;64036;48.266;14.192;2023-04-24T03:14:28;12.15;79.90
75457;SHT31;64036;48.266;14.192;2023-04-24T03:16:56;12.16;79.90
75457;SHT31;64036;48.266;14.192;2023-04-24T03:19:25;12.16;79.90
75457;SHT31;64036;48.266;14.192;2023-04-24T03:21:51;12.17;79.89
75457;SHT31;64036;48.266;14.192;2023-04-24T03:24:23;12.17;79.86
75457;SHT31;64036;48.266;14.192;2023-04-24T03:26:49;12.18;79.90
75457;SHT31;64036;48.266;14.192;2023-04-24T03:29:15;12.18;79.90
75457;SHT31;64036;48.266;14.192;2023-04-24T03:31:40;12.19;79.90
75457;SHT31;64036;48.266;14.192;2023-04-24T03:34:15;12.21;79.91
75457;SHT31;64036;48.266;14.192;2023-04-24T03:36:44;12.24;79.89
75457;SHT31;64036;48.266;14.192;2023-04-24T03:39:12;12.27;79.75
75457;SHT31;64036;48.266;14.192;2023-04-24T03:41:40;12.28;79.66
75457;SHT31;64036;48.266;14.192;2023-04-24T03:44:09;12.29;79.54
75457;SHT31;64036;48.266;14.192;2023-04-24T03:46:37;12.28;79.53
75457;SHT31;64036;48.266;14.192;2023-04-24T03:49:09;12.27;79.53
75457;SHT31;64036;48.266;14.192;2023-04-24T03:51:40;12.27;79.50
75457;SHT31;64036;48.266;14.192;2023-04-24T03:54:08;12.27;79.47
75457;SHT31;64036;48.266;14.192;2023-04-24T03:56:39;12.28;79.45
75457;SHT31;64036;48.266;14.192;2023-04-24T03:59:08;12.29;79.50
75457;SHT31;64036;48.266;14.192;2023-04-24T04:01:39;12.30;79.45
75457;SHT31;64036;48.266;14.192;2023-04-24T04:04:11;12.29;79.42
75457;SHT31;64036;48.266;14.192;2023-04-24T04:06:42;12.29;79.40
75457;SHT31;64036;48.266;14.192;2023-04-24T04:09:19;12.31;79.39
75457;SHT31;64036;48.266;14.192;2023-04-24T04:11:47;12.27;79.39
75457;SHT31;64036;48.266;14.192;2023-04-24T04:14:17;12.25;79.36
75457;SHT31;64036;48.266;14.192;2023-04-24T04:16:43;12.24;79.39
75457;SHT31;64036;48.266;14.192;2023-04-24T04:19:15;12.23;79.38
75457;SHT31;64036;48.266;14.192;2023-04-24T04:21:44;12.23;79.40
75457;SHT31;64036;48.266;14.192;2023-04-24T04:24:11;12.22;79.31
75457;SHT31;64036;48.266;14.192;2023-04-24T04:26:49;12.21;79.29
75457;SHT31;64036;48.266;14.192;2023-04-24T04:29:19;12.22;79.24
75457;SHT31;64036;48.266;14.192;2023-04-24T04:31:44;12.22;79.21
75457;SHT31;64036;48.266;14.192;2023-04-24T04:34:16;12.22;79.16
75457;SHT31;64036;48.266;14.192;2023-04-24T04:36:41;12.22;79.07
75457;SHT31;64036;48.266;14.192;2023-04-24T04:39:11;12.22;79.06
75457;SHT31;64036;48.266;14.192;2023-04-24T04:41:36;12.23;79.00
75457;SHT31;64036;48.266;14.192;2023-04-24T04:44:05;12.26;78.97
75457;SHT31;64036;48.266;14.192;2023-04-24T04:46:31;12.29;78.92
75457;SHT31;64036;48.266;14.192;2023-04-24T04:49:02;12.31;78.77
75457;SHT31;64036;48.266;14.192;2023-04-24T04:51:31;12.34;78.74
75457;SHT31;64036;48.266;14.192;2023-04-24T04:54:02;12.37;78.66
75457;SHT31;64036;48.266;14.192;2023-04-24T04:56:30;12.40;78.60
75457;SHT31;64036;48.266;14.192;2023-04-24T04:58:59;12.44;78.60
75457;SHT31;64036;48.266;14.192;2023-04-24T05:01:25;12.47;78.47
75457;SHT31;64036;48.266;14.192;2023-04-24T05:03:52;12.47;78.30
75457;SHT31;64036;48.266;14.192;2023-04-24T05:06:21;12.47;78.24
75457;SHT31;64036;48.266;14.192;2023-04-24T05:08:52;12.43;78.32
75457;SHT31;64036;48.266;14.192;2023-04-24T05:11:22;12.42;78.40
75457;SHT31;64036;48.266;14.192;2023-04-24T05:13:48;12.39;78.44
75457;SHT31;64036;48.266;14.192;2023-04-24T05:16:17;12.37;78.43
75457;SHT31;64036;48.266;14.192;2023-04-24T05:18:43;12.36;78.43
75457;SHT31;64036;48.266;14.192;2023-04-24T05:21:09;12.34;78.31
75457;SHT31;64036;48.266;14.192;2023-04-24T05:23:34;12.32;78.22
75457;SHT31;64036;48.266;14.192;2023-04-24T05:26:00;12.29;78.03
75457;SHT31;64036;48.266;14.192;2023-04-24T05:28:32;12.28;78.00
75457;SHT31;64036;48.266;14.192;2023-04-24T05:31:02;12.27;77.89
75457;SHT31;64036;48.266;14.192;2023-04-24T05:33:35;12.26;77.31
75457;SHT31;64036;48.266;14.192;2023-04-24T05:36:02;12.22;77.11
75457;SHT31;64036;48.266;14.192;2023-04-24T05:38:30;12.16;76.89
75457;SHT31;64036;48.266;14.192;2023-04-24T05:40:56;12.14;77.14
75457;SHT31;64036;48.266;14.192;2023-04-24T05:43:25;12.12;77.33
75457;SHT31;64036;48.266;14.192;2023-04-24T05:45:51;12.09;77.47
75457;SHT31;64036;48.266;14.192;2023-04-24T05:48:21;12.08;77.50
75457;SHT31;64036;48.266;14.192;2023-04-24T05:50:48;12.05;77.58
75457;SHT31;64036;48.266;14.192;2023-04-24T05:53:14;12.02;77.80
75457;SHT31;64036;48.266;14.192;2023-04-24T05:55:50;12.03;77.91
75457;SHT31;64036;48.266;14.192;2023-04-24T05:58:16;12.05;77.91
75457;SHT31;64036;48.266;14.192;2023-04-24T06:00:46;12.05;77.87
75457;SHT31;64036;48.266;14.192;2023-04-24T06:03:14;12.03;77.97
75457;SHT31;64036;48.266;14.192;2023-04-24T06:05:41;12.04;77.96
75457;SHT31;64036;48.266;14.192;2023-04-24T06:08:06;12.02;77.91
75457;SHT31;64036;48.266;14.192;2023-04-24T06:10:32;12.00;77.90
75457;SHT31;64036;48.266;14.192;2023-04-24T06:13:00;12.00;77.92
75457;SHT31;64036;48.266;14.192;2023-04-24T06:15:29;12.00;77.86
75457;SHT31;64036;48.266;14.192;2023-04-24T06:18:16;11.99;77.81
75457;SHT31;64036;48.266;14.192;2023-04-24T06:20:45;12.00;77.78
75457;SHT31;64036;48.266;14.192;2023-04-24T06:23:12;12.02;77.75
75457;SHT31;64036;48.266;14.192;2023-04-24T06:25:41;12.02;77.74
75457;SHT31;64036;48.266;14.192;2023-04-24T06:28:09;12.06;77.92
75457;SHT31;64036;48.266;14.192;2023-04-24T06:30:38;12.09;77.97
75457;SHT31;64036;48.266;14.192;2023-04-24T06:33:06;12.11;77.92
75457;SHT31;64036;48.266;14.192;2023-04-24T06:35:32;12.14;77.90
75457;SHT31;64036;48.266;14.192;2023-04-24T06:37:58;12.19;77.91
75457;SHT31;64036;48.266;14.192;2023-04-24T06:40:24;12.25;77.92
75457;SHT31;64036;48.266;14.192;2023-04-24T06:42:50;12.28;77.82
75457;SHT31;64036;48.266;14.192;2023-04-24T06:45:15;12.30;77.69
75457;SHT31;64036;48.266;14.192;2023-04-24T06:47:41;12.32;77.75
75457;SHT31;64036;48.266;14.192;2023-04-24T06:50:07;12.34;77.72
75457;SHT31;64036;48.266;14.192;2023-04-24T06:52:33;12.35;77.64
75457;SHT31;64036;48.266;14.192;2023-04-24T06:55:02;12.38;77.66
75457;SHT31;64036;48.266;14.192;2023-04-24T06:57:32;12.40;77.68
75457;SHT31;64036;48.266;14.192;2023-04-24T07:00:04;12.42;77.63
75457;SHT31;64036;48.266;14.192;2023-04-24T07:02:36;12.44;77.63
75457;SHT31;64036;48.266;14.192;2023-04-24T07:05:03;12.47;77.58
75457;SHT31;64036;48.266;14.192;2023-04-24T07:07:33;12.50;77.61
75457;SHT31;64036;48.266;14.192;2023-04-24T07:10:03;12.55;77.69
75457;SHT31;64036;48.266;14.192;2023-04-24T07:12:30;12.61;77.73
75457;SHT31;64036;48.266;14.192;2023-04-24T07:14:57;12.64;77.52
75457;SHT31;64036;48.266;14.192;2023-04-24T07:17:25;12.69;77.56
75457;SHT31;64036;48.266;14.192;2023-04-24T07:19:51;12.71;77.36
75457;SHT31;64036;48.266;14.192;2023-04-24T07:22:17;12.74;77.36
75457;SHT31;64036;48.266;14.192;2023-04-24T07:24:43;12.78;77.22
75457;SHT31;64036;48.266;14.192;2023-04-24T07:27:09;12.81;77.33
75457;SHT31;64036;48.266;14.192;2023-04-24T07:29:37;12.84;77.21
75457;SHT31;64036;48.266;14.192;2023-04-24T07:32:09;12.89;77.08
75457;SHT31;64036;48.266;14.192;2023-04-24T07:34:35;12.95;77.00
75457;SHT31;64036;48.266;14.192;2023-04-24T07:37:03;13.02;76.82
75457;SHT31;64036;48.266;14.192;2023-04-24T07:39:29;13.06;76.71
75457;SHT31;64036;48.266;14.192;2023-04-24T07:41:55;13.10;76.71
75457;SHT31;64036;48.266;14.192;2023-04-24T07:44:29;13.18;76.72
75457;SHT31;64036;48.266;14.192;2023-04-24T07:46:55;13.24;76.54
75457;SHT31;64036;48.266;14.192;2023-04-24T07:49:24;13.26;76.34
75457;SHT31;64036;48.266;14.192;2023-04-24T07:51:55;13.26;76.28
75457;SHT31;64036;48.266;14.192;2023-04-24T07:54:20;13.25;76.24
75457;SHT31;64036;48.266;14.192;2023-04-24T07:56:48;13.24;76.20
75457;SHT31;64036;48.266;14.192;2023-04-24T07:59:13;13.29;75.84
75457;SHT31;64036;48.266;14.192;2023-04-24T08:01:39;13.33;75.77
75457;SHT31;64036;48.266;14.192;2023-04-24T08:04:07;13.32;75.70
75457;SHT31;64036;48.266;14.192;2023-04-24T08:06:33;13.38;75.79
75457;SHT31;64036;48.266;14.192;2023-04-24T08:08:59;13.42;75.42
75457;SHT31;64036;48.266;14.192;2023-04-24T08:11:26;13.44;75.43
75457;SHT31;64036;48.266;14.192;2023-04-24T08:13:52;13.50;75.48
75457;SHT31;64036;48.266;14.192;2023-04-24T08:16:21;13.55;75.50
75457;SHT31;64036;48.266;14.192;2023-04-24T08:18:48;13.57;75.09
75457;SHT31;64036;48.266;14.192;2023-04-24T08:21:14;13.59;75.33
75457;SHT31;64036;48.266;14.192;2023-04-24T08:23:42;13.62;75.00
75457;SHT31;64036;48.266;14.192;2023-04-24T08:26:17;13.62;74.96
75457;SHT31;64036;48.266;14.192;2023-04-24T08:28:42;13.63;74.96
75457;SHT31;64036;48.266;14.192;2023-04-24T08:31:08;13.65;74.99
75457;SHT31;64036;48.266;14.192;2023-04-24T08:33:34;13.70;75.09
75457;SHT31;64036;48.266;14.192;2023-04-24T08:36:03;13.75;74.99
75457;SHT31;64036;48.266;14.192;2023-04-24T08:38:30;13.77;74.78
75457;SHT31;64036;48.266;14.192;2023-04-24T08:40:57;13.84;75.06
75457;SHT31;64036;48.266;14.192;2023-04-24T08:43:25;13.98;75.30
75457;SHT31;64036;48.266;14.192;2023-04-24T08:45:53;14.12;75.20
75457;SHT31;64036;48.266;14.192;2023-04-24T08:48:22;14.24;74.90
75457;SHT31;64036;48.266;14.192;2023-04-24T08:50:50;14.33;74.44
75457;SHT31;64036;48.266;14.192;2023-04-24T08:53:16;14.37;73.95
75457;SHT31;64036;48.266;14.192;2023-04-24T08:55:43;14.44;73.98
75457;SHT31;64036;48.266;14.192;2023-04-24T08:58:13;14.48;73.55
75457;SHT31;64036;48.266;14.192;2023-04-24T09:00:41;14.54;73.59
75457;SHT31;64036;48.266;14.192;2023-04-24T09:03:12;14.65;73.29
75457;SHT31;64036;48.266;14.192;2023-04-24T09:05:41;14.71;72.73
75457;SHT31;64036;48.266;14.192;2023-04-24T09:08:10;14.72;72.54
75457;SHT31;64036;48.266;14.192;2023-04-24T09:10:38;14.64;72.30
75457;SHT31;64036;48.266;14.192;2023-04-24T09:13:05;14.57;72.23
75457;SHT31;64036;48.266;14.192;2023-04-24T09:15:34;14.45;72.31
75457;SHT31;64036;48.266;14.192;2023-04-24T09:18:01;14.35;72.61
75457;SHT31;64036;48.266;14.192;2023-04-24T09:20:27;14.26;72.81
75457;SHT31;64036;48.266;14.192;2023-04-24T09:22:59;14.19;72.98
75457;SHT31;64036;48.266;14.192;2023-04-24T09:25:33;14.15;73.22
75457;SHT31;64036;48.266;14.192;2023-04-24T09:28:01;14.17;73.51
75457;SHT31;64036;48.266;14.192;2023-04-24T09:30:29;14.18;73.53
75457;SHT31;64036;48.266;14.192;2023-04-24T09:33:11;14.14;73.17
75457;SHT31;64036;48.266;14.192;2023-04-24T09:35:40;14.11;73.37
75457;SHT31;64036;48.266;14.192;2023-04-24T09:38:08;14.12;73.47
75457;SHT31;64036;48.266;14.192;2023-04-24T09:40:35;14.14;73.58
75457;SHT31;64036;48.266;14.192;2023-04-24T09:43:03;14.15;73.70
75457;SHT31;64036;48.266;14.192;2023-04-24T09:45:34;14.14;73.54
75457;SHT31;64036;48.266;14.192;2023-04-24T09:48:01;14.13;73.17
75457;SHT31;64036;48.266;14.192;2023-04-24T09:50:29;14.20;73.42
75457;SHT31;64036;48.266;14.192;2023-04-24T09:53:01;14.29;72.94
75457;SHT31;64036;48.266;14.192;2023-04-24T09:55:30;14.32;72.93
75457;SHT31;64036;48.266;14.192;2023-04-24T09:57:59;14.33;72.98
75457;SHT31;64036;48.266;14.192;2023-04-24T10:00:31;14.39;73.11
75457;SHT31;64036;48.266;14.192;2023-04-24T10:02:58;14.51;73.25
75457;SHT31;64036;48.266;14.192;2023-04-24T10:05:35;14.61;73.18
75457;SHT31;64036;48.266;14.192;2023-04-24T10:08:06;14.63;72.96
75457;SHT31;64036;48.266;14.192;2023-04-24T10:10:36;14.61;72.70
75457;SHT31;64036;48.266;14.192;2023-04-24T10:13:10;14.57;72.59
75457;SHT31;64036;48.266;14.192;2023-04-24T10:15:37;14.57;72.94
75457;SHT31;64036;48.266;14.192;2023-04-24T10:18:08;14.57;73.22
75457;SHT31;64036;48.266;14.192;2023-04-24T10:20:35;14.54;72.97
75457;SHT31;64036;48.266;14.192;2023-04-24T10:23:03;14.53;72.69
75457;SHT31;64036;48.266;14.192;2023-04-24T10:25:30;14.62;72.70
75457;SHT31;64036;48.266;14.192;2023-04-24T10:27:58;14.79;72.24
75457;SHT31;64036;48.266;14.192;2023-04-24T10:30:30;14.90;72.01
75457;SHT31;64036;48.266;14.192;2023-04-24T10:33:01;14.91;71.38
75457;SHT31;64036;48.266;14.192;2023-04-24T10:35:30;14.93;71.26
75457;SHT31;64036;48.266;14.192;2023-04-24T10:38:08;15.02;71.56
75457;SHT31;64036;48.266;14.192;2023-04-24T10:40:37;15.11;71.26
75457;SHT31;64036;48.266;14.192;2023-04-24T10:43:07;15.18;70.34
75457;SHT31;64036;48.266;14.192;2023-04-24T10:45:36;15.24;69.34
75457;SHT31;64036;48.266;14.192;2023-04-24T10:53:17;16.36;69.02
75457;SHT31;64036;48.266;14.192;2023-04-24T10:56:08;16.35;67.54
75457;SHT31;64036;48.266;14.192;2023-04-24T10:58:36;16.11;67.49
75457;SHT31;64036;48.266;14.192;2023-04-24T11:01:02;15.92;67.72
75457;SHT31;64036;48.266;14.192;2023-04-24T11:03:28;15.76;68.10
75457;SHT31;64036;48.266;14.192;2023-04-24T11:08:31;16.01;68.95
75457;SHT31;64036;48.266;14.192;2023-04-24T11:16:30;16.41;66.67
75457;SHT31;64036;48.266;14.192;2023-04-24T11:21:42;16.31;66.79
75457;SHT31;64036;48.266;14.192;2023-04-24T11:27:07;16.82;66.69
75457;SHT31;64036;48.266;14.192;2023-04-24T11:29:41;17.05;66.05
75457;SHT31;64036;48.266;14.192;2023-04-24T11:32:35;17.28;65.24
75457;SHT31;64036;48.266;14.192;2023-04-24T11:37:39;17.62;63.60
75457;SHT31;64036;48.266;14.192;2023-04-24T11:40:07;17.95;62.66
75457;SHT31;64036;48.266;14.192;2023-04-24T11:42:36;18.25;63.21
75457;SHT31;64036;48.266;14.192;2023-04-24T11:45:13;18.37;61.73
75457;SHT31;64036;48.266;14.192;2023-04-24T11:47:42;18.43;62.12
75457;SHT31;64036;48.266;14.192;2023-04-24T11:50:13;18.35;60.87
75457;SHT31;64036;48.266;14.192;2023-04-24T11:52:44;18.22;60.61
75457;SHT31;64036;48.266;14.192;2023-04-24T11:57:42;18.44;61.19
75457;SHT31;64036;48.266;14.192;2023-04-24T12:00:22;18.76;60.73
75457;SHT31;64036;48.266;14.192;2023-04-24T12:02:50;18.99;60.79
75457;SHT31;64036;48.266;14.192;2023-04-24T12:05:20;18.95;60.76
75457;SHT31;64036;48.266;14.192;2023-04-24T12:07:53;18.66;60.43
75457;SHT31;64036;48.266;14.192;2023-04-24T12:10:23;18.21;60.27
75457;SHT31;64036;48.266;14.192;2023-04-24T12:12:55;17.62;60.98
75457;SHT31;64036;48.266;14.192;2023-04-24T12:15:22;17.02;61.15
75457;SHT31;64036;48.266;14.192;2023-04-24T12:17:50;16.28;61.41
75457;SHT31;64036;48.266;14.192;2023-04-24T12:20:17;15.73;63.18
75457;SHT31;64036;48.266;14.192;2023-04-24T12:22:59;15.35;64.41
75457;SHT31;64036;48.266;14.192;2023-04-24T12:25:29;15.06;65.26
75457;SHT31;64036;48.266;14.192;2023-04-24T12:30:29;14.81;66.39
75457;SHT31;64036;48.266;14.192;2023-04-24T12:32:59;14.84;67.02
75457;SHT31;64036;48.266;14.192;2023-04-24T12:35:29;14.81;67.33
75457;SHT31;64036;48.266;14.192;2023-04-24T12:38:08;14.73;67.44
75457;SHT31;64036;48.266;14.192;2023-04-24T12:40:39;14.62;66.98
75457;SHT31;64036;48.266;14.192;2023-04-24T12:43:16;14.52;67.11
75457;SHT31;64036;48.266;14.192;2023-04-24T12:45:44;14.40;67.34
75457;SHT31;64036;48.266;14.192;2023-04-24T12:48:11;14.33;67.57
75457;SHT31;64036;48.266;14.192;2023-04-24T12:50:38;14.26;67.79
75457;SHT31;64036;48.266;14.192;2023-04-24T12:53:04;14.19;67.58
75457;SHT31;64036;48.266;14.192;2023-04-24T12:55:33;14.16;67.53
75457;SHT31;64036;48.266;14.192;2023-04-24T12:57:59;14.21;67.52
75457;SHT31;64036;48.266;14.192;2023-04-24T13:00:24;14.25;67.04
75457;SHT31;64036;48.266;14.192;2023-04-24T13:02:50;14.30;66.74
75457;SHT31;64036;48.266;14.192;2023-04-24T13:05:16;14.35;66.21
75457;SHT31;64036;48.266;14.192;2023-04-24T13:07:42;14.45;66.20
75457;SHT31;64036;48.266;14.192;2023-04-24T13:10:07;14.50;65.65
75457;SHT31;64036;48.266;14.192;2023-04-24T13:12:34;14.58;65.81
75457;SHT31;64036;48.266;14.192;2023-04-24T13:15:03;14.73;66.18
75457;SHT31;64036;48.266;14.192;2023-04-24T13:17:30;14.92;66.14
75457;SHT31;64036;48.266;14.192;2023-04-24T13:19:56;15.07;65.50
75457;SHT31;64036;48.266;14.192;2023-04-24T13:22:21;15.25;65.82
75457;SHT31;64036;48.266;14.192;2023-04-24T13:24:47;15.40;64.34
75457;SHT31;64036;48.266;14.192;2023-04-24T13:27:16;15.49;64.12
75457;SHT31;64036;48.266;14.192;2023-04-24T13:29:42;15.63;64.37
75457;SHT31;64036;48.266;14.192;2023-04-24T13:32:08;15.80;64.51
75457;SHT31;64036;48.266;14.192;2023-04-24T13:34:34;15.88;62.87
75457;SHT31;64036;48.266;14.192;2023-04-24T13:37:00;15.92;62.41
75457;SHT31;64036;48.266;14.192;2023-04-24T13:39:26;15.97;62.16
75457;SHT31;64036;48.266;14.192;2023-04-24T13:41:52;16.10;61.98
75457;SHT31;64036;48.266;14.192;2023-04-24T13:44:19;16.25;61.22
75457;SHT31;64036;48.266;14.192;2023-04-24T13:46:46;16.40;60.70
75457;SHT31;64036;48.266;14.192;2023-04-24T13:49:14;16.57;60.87
75457;SHT31;64036;48.266;14.192;2023-04-24T13:51:40;16.72;60.80
75457;SHT31;64036;48.266;14.192;2023-04-24T13:54:07;16.86;60.22
75457;SHT31;64036;48.266;14.192;2023-04-24T13:56:33;16.87;59.76
75457;SHT31;64036;48.266;14.192;2023-04-24T13:58:59;16.92;60.03
75457;SHT31;64036;48.266;14.192;2023-04-24T14:01:25;17.01;59.89
75457;SHT31;64036;48.266;14.192;2023-04-24T14:03:51;17.14;60.06
75457;SHT31;64036;48.266;14.192;2023-04-24T14:06:18;17.16;59.11
75457;SHT31;64036;48.266;14.192;2023-04-24T14:08:45;17.14;59.21
75457;SHT31;64036;48.266;14.192;2023-04-24T14:11:12;17.15;58.51
75457;SHT31;64036;48.266;14.192;2023-04-24T14:13:38;17.14;59.22
75457;SHT31;64036;48.266;14.192;2023-04-24T14:16:04;17.14;59.29
75457;SHT31;64036;48.266;14.192;2023-04-24T14:18:30;17.14;59.48
75457;SHT31;64036;48.266;14.192;2023-04-24T14:20:56;17.19;59.05
75457;SHT31;64036;48.266;14.192;2023-04-24T14:23:21;17.13;58.64
75457;SHT31;64036;48.266;14.192;2023-04-24T14:25:47;16.99;58.08
75457;SHT31;64036;48.266;14.192;2023-04-24T14:28:16;16.76;58.42
75457;SHT31;64036;48.266;14.192;2023-04-24T14:30:49;16.57;58.81
75457;SHT31;64036;48.266;14.192;2023-04-24T14:33:14;16.47;59.36
75457;SHT31;64036;48.266;14.192;2023-04-24T14:35:40;16.37;59.60
75457;SHT31;64036;48.266;14.192;2023-04-24T14:38:08;16.27;58.98
75457;SHT31;64036;48.266;14.192;2023-04-24T14:40:34;16.12;57.67
75457;SHT31;64036;48.266;14.192;2023-04-24T14:42:59;15.90;57.00
75457;SHT31;64036;48.266;14.192;2023-04-24T14:45:25;15.73;57.99
75457;SHT31;64036;48.266;14.192;2023-04-24T14:47:52;15.52;59.12
75457;SHT31;64036;48.266;14.192;2023-04-24T14:50:18;15.07;62.02
75457;SHT31;64036;48.266;14.192;2023-04-24T14:52:45;14.45;64.05
75457;SHT31;64036;48.266;14.192;2023-04-24T14:55:11;13.97;65.44
75457;SHT31;64036;48.266;14.192;2023-04-24T14:57:37;13.60;66.80
75457;SHT31;64036;48.266;14.192;2023-04-24T15:00:03;13.28;67.91
75457;SHT31;64036;48.266;14.192;2023-04-24T15:02:33;13.06;68.48
75457;SHT31;64036;48.266;14.192;2023-04-24T15:05:02;12.92;68.77
75457;SHT31;64036;48.266;14.192;2023-04-24T15:07:27;12.84;68.74
75457;SHT31;64036;48.266;14.192;2023-04-24T15:09:54;12.78;68.49
75457;SHT31;64036;48.266;14.192;2023-04-24T15:12:21;12.74;68.34
75457;SHT31;64036;48.266;14.192;2023-04-24T15:14:47;12.71;68.27
75457;SHT31;64036;48.266;14.192;2023-04-24T15:17:13;12.71;68.17
75457;SHT31;64036;48.266;14.192;2023-04-24T15:19:38;12.73;68.26
75457;SHT31;64036;48.266;14.192;2023-04-24T15:22:04;12.76;68.23
75457;SHT31;64036;48.266;14.192;2023-04-24T15:24:30;12.79;68.32
75457;SHT31;64036;48.266;14.192;2023-04-24T15:26:55;12.82;68.46
75457;SHT31;64036;48.266;14.192;2023-04-24T15:29:24;12.83;68.40
75457;SHT31;64036;48.266;14.192;2023-04-24T15:31:51;12.81;68.86
75457;SHT31;64036;48.266;14.192;2023-04-24T15:34:16;12.77;69.52
75457;SHT31;64036;48.266;14.192;2023-04-24T15:36:42;12.74;69.68
75457;SHT31;64036;48.266;14.192;2023-04-24T15:39:10;12.71;69.98
75457;SHT31;64036;48.266;14.192;2023-04-24T15:41:36;12.70;69.89
75457;SHT31;64036;48.266;14.192;2023-04-24T15:44:02;12.67;69.61
75457;SHT31;64036;48.266;14.192;2023-04-24T15:46:28;12.67;69.66
75457;SHT31;64036;48.266;14.192;2023-04-24T15:48:54;12.67;69.76